Time;durP1;ratioP1;P1;durP2;ratioP2;P2;SDS_P1;SDS_P2;PMS_P1;PMS_P2;Temp;Humidity;BMP_temperature;BMP_pressure;BME280_temperature;BME280_humidity;BME280_pressure;Samples;Min_cycle;Max_cycle;Signal;HPM_P1;HPM_P2
2022/05/23 00:01:10;;;;;;;;;;;;;;;;;;4973440;28;19928;-71
2022/05/23 00:03:36;;;;;;;;;;;;;;;;;;4974290;28;19995;-71
2022/05/23 00:06:02;;;;;;;;;;;;;;;;;;4973976;28;19926;-71
2022/05/23 00:08:28;;;;;;;;;;;;;;;;;;4974127;28;19922;-71
2022/05/23 00:10:54;;;;;;;;;;;;;;;;;;4956127;28;19972;-71
2022/05/23 00:13:20;;;;;;;;;;;;;;;;;;4974032;28;19976;-71
2022/05/23 00:15:46;;;;;;;;;;;;;;;;;;4974205;28;19961;-71
2022/05/23 00:18:12;;;;;;;;;;;;;;;;;;4973732;28;19922;-71
2022/05/23 00:20:39;;;;;;;;;;;;;;;;;;4973898;28;20329;-71
2022/05/23 00:23:05;;;;;;;;;;;;;;;;;;4971082;28;19926;-71
2022/05/23 00:25:31;;;;;;;;;;;;;;;;;;4957036;28;19926;-71
2022/05/23 00:27:57;;;;;;;;;;;;;;;;;;4973449;28;19922;-72
2022/05/23 00:30:23;;;;;;;;;;;;;;;;;;4959257;28;19928;-71
2022/05/23 00:35:33;;;;;;;;;;;;;;;;;;4977633;28;19945;-71
2022/05/23 00:37:59;;;;;;;;;;;;;;;;;;4977192;28;20353;-71
2022/05/23 00:40:25;;;;;;;;;;;;;;;;;;4977198;28;20332;-71
2022/05/23 00:45:36;;;;;;;;;;;;;;;;;;4977454;28;19933;-71
2022/05/23 00:48:02;;;;;;;;;;;;;;;;;;4977128;28;19922;-71
2022/05/23 00:50:28;;;;;;;;;;;;;;;;;;4977112;28;19948;-71
2022/05/23 00:52:54;;;;;;;;;;;;;;;;;;4976831;28;19929;-71
2022/05/23 00:55:20;;;;;;;;;;;;;;;;;;4977399;28;19926;-71
2022/05/23 00:57:46;;;;;;;;;;;;;;;;;;4977143;28;20332;-71
2022/05/23 01:00:12;;;;;;;;;;;;;;;;;;4976631;28;19922;-71
2022/05/23 01:02:38;;;;;;;;;;;;;;;;;;4976850;28;19922;-71
2022/05/23 01:05:04;;;;;;;;;;;;;;;;;;4976360;28;19922;-71
2022/05/23 01:07:30;;;;;;;;;;;;;;;;;;4977012;28;20337;-71
2022/05/23 01:09:55;;;;;;;;;;;;;;;;;;4976820;28;19934;-71
2022/05/23 01:12:21;;;;;;;;;;;;;;;;;;4977131;28;19921;-71
2022/05/23 01:14:47;;;;;;;;;;;;;;;;;;4975844;28;19929;-71
2022/05/23 01:17:13;;;;;;;;;;;;;;;;;;4959412;28;19929;-71
2022/05/23 01:19:39;;;;;;;;;;;;;;;;;;4976972;28;20073;-71
2022/05/23 01:22:05;;;;;;;;;;;;;;;;;;4976587;28;19988;-71
2022/05/23 01:24:31;;;;;;;;;;;;;;;;;;4976378;28;20359;-71
2022/05/23 01:26:57;;;;;;;;;;;;;;;;;;4976570;28;20349;-71
2022/05/23 01:29:23;;;;;;;;;;;;;;;;;;4976496;28;20376;-71
2022/05/23 01:31:49;;;;;;;;;;;;;;;;;;4976167;28;19925;-71
2022/05/23 01:34:15;;;;;;;;;;;;;;;;;;4976146;28;20009;-71
2022/05/23 01:36:41;;;;;;;;;;;;;;;;;;4976286;28;20374;-71
2022/05/23 01:39:07;;;;;;;;;;;;;;;;;;4975399;28;20353;-71
2022/05/23 01:41:33;;;;;;;;;;;;;;;;;;4974978;28;19984;-71
2022/05/23 01:43:59;;;;;;;;;;;;;;;;;;4976181;28;20277;-70
2022/05/23 01:46:25;;;;;;;;;;;;;;;;;;4975540;28;19922;-71
2022/05/23 01:48:51;;;;;;;;;;;;;;;;;;4976184;28;19922;-71
2022/05/23 01:51:17;;;;;;;;;;;;;;;;;;4975601;28;19928;-71
2022/05/23 01:53:43;;;;;;;;;;;;;;;;;;4976089;28;19922;-71
2022/05/23 01:56:08;;;;;;;;;;;;;;;;;;4975304;28;19922;-71
2022/05/23 02:01:19;;;;;;;;;;;;;;;;;;4958603;28;20017;-71
2022/05/23 02:03:45;;;;;;;;;;;;;;;;;;4975356;28;20000;-71
2022/05/23 02:06:11;;;;;;;;;;;;;;;;;;4975941;28;19922;-71
2022/05/23 02:08:37;;;;;;;;;;;;;;;;;;4958810;28;19976;-71
2022/05/23 02:11:03;;;;;;;;;;;;;;;;;;4975969;28;19969;-71
2022/05/23 02:13:29;;;;;;;;;;;;;;;;;;4975618;28;19922;-71
2022/05/23 02:15:55;;;;;;;;;;;;;;;;;;4975920;28;19945;-71
2022/05/23 02:18:21;;;;;;;;;;;;;;;;;;4975760;28;19950;-71
2022/05/23 02:20:46;;;;;;;;;;;;;;;;;;4976091;28;19922;-71
2022/05/23 02:23:12;;;;;;;;;;;;;;;;;;4975137;28;19922;-71
2022/05/23 02:25:39;;;;;;;;;;;;;;;;;;4975741;28;19946;-71
2022/05/23 02:28:04;;;;;;;;;;;;;;;;;;4975587;28;19922;-72
2022/05/23 02:30:30;;;;;;;;;;;;;;;;;;4975268;28;19922;-71
2022/05/23 02:32:56;;;;;;;;;;;;;;;;;;4975307;28;19929;-71
2022/05/23 02:35:22;;;;;;;;;;;;;;;;;;4975156;28;19965;-71
2022/05/23 02:37:48;;;;;;;;;;;;;;;;;;4975196;28;19969;-71
2022/05/23 02:40:14;;;;;;;;;;;;;;;;;;4957547;28;19925;-71
2022/05/23 02:42:40;;;;;;;;;;;;;;;;;;4974914;28;19926;-71
2022/05/23 02:45:06;;;;;;;;;;;;;;;;;;4974740;28;19929;-71
2022/05/23 02:47:32;;;;;;;;;;;;;;;;;;4975450;28;19922;-71
2022/05/23 02:49:58;;;;;;;;;;;;;;;;;;4974994;28;19933;-71
2022/05/23 02:52:24;;;;;;;;;;;;;;;;;;4974210;28;19944;-71
2022/05/23 02:54:50;;;;;;;;;;;;;;;;;;4974381;28;20036;-71
2022/05/23 02:57:16;;;;;;;;;;;;;;;;;;4974540;28;20038;-71
2022/05/23 02:59:42;;;;;;;;;;;;;;;;;;4957813;28;19922;-71
2022/05/23 03:04:53;;;;;;;;;;;;;;;;;;4974626;28;20417;-71
2022/05/23 03:07:19;;;;;;;;;;;;;;;;;;4973994;28;19926;-72
2022/05/23 03:09:45;;;;;;;;;;;;;;;;;;4957538;28;19928;-71
2022/05/23 03:12:11;;;;;;;;;;;;;;;;;;4974517;28;19965;-71
2022/05/23 03:14:37;;;;;;;;;;;;;;;;;;4974386;28;19921;-71
2022/05/23 03:17:03;;;;;;;;;;;;;;;;;;4974688;28;19976;-71
2022/05/23 03:19:29;;;;;;;;;;;;;;;;;;4974249;28;19973;-71
2022/05/23 03:27:24;;;;;;;;;;;;;;;;;;4974245;28;19929;-71
2022/05/23 03:29:51;;;;;;;;;;;;;;;;;;4974407;28;19922;-72
2022/05/23 03:32:17;;;;;;;;;;;;;;;;;;4972786;28;19922;-71
2022/05/23 03:34:43;;;;;;;;;;;;;;;;;;4973931;28;20267;-71
2022/05/23 03:37:09;;;;;;;;;;;;;;;;;;4974447;28;19929;-71
2022/05/23 03:39:34;;;;;;;;;;;;;;;;;;4956526;28;19925;-71
2022/05/23 03:42:00;;;;;;;;;;;;;;;;;;4974104;28;19972;-71
2022/05/23 03:44:26;;;;;;;;;;;;;;;;;;4973949;28;19925;-71
2022/05/23 03:46:52;;;;;;;;;;;;;;;;;;4974174;28;19929;-71
2022/05/23 03:49:18;;;;;;;;;;;;;;;;;;4973694;28;19929;-71
2022/05/23 03:51:44;;;;;;;;;;;;;;;;;;4973952;28;19928;-71
2022/05/23 03:54:10;;;;;;;;;;;;;;;;;;4974414;28;19922;-71
2022/05/23 03:56:36;;;;;;;;;;;;;;;;;;4973692;28;20325;-71
2022/05/23 03:59:02;;;;;;;;;;;;;;;;;;4973744;28;19922;-71
2022/05/23 04:01:28;;;;;;;;;;;;;;;;;;4973798;28;19929;-71
2022/05/23 04:03:54;;;;;;;;;;;;;;;;;;4975183;28;19922;-71
2022/05/23 04:06:20;;;;;;;;;;;;;;;;;;4977723;28;20357;-71
2022/05/23 04:08:46;;;;;;;;;;;;;;;;;;4977787;28;20324;-71
2022/05/23 04:11:12;;;;;;;;;;;;;;;;;;4978329;28;20348;-71
2022/05/23 04:13:38;;;;;;;;;;;;;;;;;;4977489;28;20266;-71
2022/05/23 04:16:04;;;;;;;;;;;;;;;;;;4978143;28;20281;-71
2022/05/23 04:18:30;;;;;;;;;;;;;;;;;;4977268;28;20376;-71
2022/05/23 04:20:56;;;;;;;;;;;;;;;;;;4977811;28;19922;-71
2022/05/23 04:23:22;;;;;;;;;;;;;;;;;;4977252;28;19922;-71
2022/05/23 04:25:48;;;;;;;;;;;;;;;;;;4977712;28;20004;-72
2022/05/23 04:28:14;;;;;;;;;;;;;;;;;;4977364;28;19929;-71
2022/05/23 04:30:40;;;;;;;;;;;;;;;;;;4977127;28;19928;-71
2022/05/23 04:35:50;;;;;;;;;;;;;;;;;;4977681;28;19929;-71
2022/05/23 04:38:16;;;;;;;;;;;;;;;;;;4976718;28;19922;-71
2022/05/23 04:40:42;;;;;;;;;;;;;;;;;;4977287;28;19977;-72
2022/05/23 04:43:08;;;;;;;;;;;;;;;;;;4977453;28;19921;-72
2022/05/23 04:45:34;;;;;;;;;;;;;;;;;;4976870;28;19921;-72
2022/05/23 04:50:45;;;;;;;;;;;;;;;;;;4976814;28;19996;-71
2022/05/23 04:53:10;;;;;;;;;;;;;;;;;;4977410;28;20377;-71
2022/05/23 04:55:38;;;;;;;;;;;;;;;;;;4976610;28;19926;-72
2022/05/23 04:58:04;;;;;;;;;;;;;;;;;;4976406;28;20337;-72
2022/05/23 05:00:30;;;;;;;;;;;;;;;;;;4976857;28;19922;-72
2022/05/23 05:02:59;;;;;;;;;;;;;;;;;;4977119;28;19926;-72
2022/05/23 05:05:25;;;;;;;;;;;;;;;;;;4976607;28;19960;-72
2022/05/23 05:07:51;;;;;;;;;;;;;;;;;;4975604;28;19922;-71
2022/05/23 05:10:18;;;;;;;;;;;;;;;;;;4977128;28;19922;-72
2022/05/23 05:12:43;;;;;;;;;;;;;;;;;;4976432;28;19926;-72
2022/05/23 05:15:09;;;;;;;;;;;;;;;;;;4976239;28;20016;-71
2022/05/23 05:17:35;;;;;;;;;;;;;;;;;;4976568;28;19945;-72
2022/05/23 05:20:01;;;;;;;;;;;;;;;;;;4977044;28;19922;-72
2022/05/23 05:22:27;;;;;;;;;;;;;;;;;;4976277;28;19977;-72
2022/05/23 05:24:53;;;;;;;;;;;;;;;;;;4976450;28;19922;-71
2022/05/23 05:27:19;;;;;;;;;;;;;;;;;;4976831;28;19930;-72
2022/05/23 05:29:45;;;;;;;;;;;;;;;;;;4976412;28;19928;-72
2022/05/23 05:32:11;;;;;;;;;;;;;;;;;;4959305;28;20013;-72
2022/05/23 05:34:37;;;;;;;;;;;;;;;;;;4975933;28;19976;-72
2022/05/23 05:37:03;;;;;;;;;;;;;;;;;;4976760;28;20010;-71
2022/05/23 05:39:31;;;;;;;;;;;;;;;;;;4958781;28;19929;-72
2022/05/23 05:41:57;;;;;;;;;;;;;;;;;;4976505;28;19969;-71
2022/05/23 05:44:23;;;;;;;;;;;;;;;;;;4975549;28;19922;-72
2022/05/23 05:46:49;;;;;;;;;;;;;;;;;;4975824;28;19922;-71
2022/05/23 05:49:16;;;;;;;;;;;;;;;;;;4975957;28;19925;-71
2022/05/23 05:51:42;;;;;;;;;;;;;;;;;;4975805;28;20332;-72
2022/05/23 05:54:08;;;;;;;;;;;;;;;;;;4976270;28;20016;-72
2022/05/23 05:56:34;;;;;;;;;;;;;;;;;;4958480;28;19922;-71
2022/05/23 05:58:59;;;;;;;;;;;;;;;;;;4976516;28;20392;-71
2022/05/23 06:01:25;;;;;;;;;;;;;;;;;;4976081;28;19930;-71
2022/05/23 06:03:51;;;;;;;;;;;;;;;;;;4975855;28;19976;-71
2022/05/23 06:11:47;;;;;;;;;;;;;;;;;;4975575;28;19922;-71
2022/05/23 06:14:13;;;;;;;;;;;;;;;;;;4975935;28;19962;-71
2022/05/23 06:16:39;;;;;;;;;;;;;;;;;;4974674;28;19925;-72
2022/05/23 06:19:05;;;;;;;;;;;;;;;;;;4975197;28;19922;-71
2022/05/23 06:21:31;;;;;;;;;;;;;;;;;;4974961;28;20569;-72
2022/05/23 06:23:57;;;;;;;;;;;;;;;;;;4975567;28;19929;-72
2022/05/23 06:26:23;;;;;;;;;;;;;;;;;;4957462;28;19926;-71
2022/05/23 06:28:49;;;;;;;;;;;;;;;;;;4958137;28;19929;-72
2022/05/23 06:31:18;;;;;;;;;;;;;;;;;;4975216;28;19922;-72
2022/05/23 06:33:44;;;;;;;;;;;;;;;;;;4975095;28;19984;-72
2022/05/23 06:36:10;;;;;;;;;;;;;;;;;;4975135;28;20253;-72
2022/05/23 06:38:36;;;;;;;;;;;;;;;;;;4975146;28;19922;-72
2022/05/23 06:41:03;;;;;;;;;;;;;;;;;;4975517;28;20394;-71
2022/05/23 06:43:29;;;;;;;;;;;;;;;;;;4975082;28;19944;-72
2022/05/23 06:45:55;;;;;;;;;;;;;;;;;;4974718;28;20069;-72
2022/05/23 06:48:22;;;;;;;;;;;;;;;;;;4974952;28;19997;-72
2022/05/23 06:50:50;;;;;;;;;;;;;;;;;;4956583;28;19922;-72
2022/05/23 06:53:16;;;;;;;;;;;;;;;;;;4974668;28;19932;-72
2022/05/23 06:55:42;;;;;;;;;;;;;;;;;;4974167;28;20013;-72
2022/05/23 06:58:09;;;;;;;;;;;;;;;;;;4974964;28;20393;-72
2022/05/23 07:00:36;;;;;;;;;;;;;;;;;;4975318;28;19926;-71
2022/05/23 07:03:02;;;;;;;;;;;;;;;;;;4957558;28;20012;-72
2022/05/23 07:13:41;;;;;;;;;;;;;;;;;;4973848;28;20286;-71
2022/05/23 07:16:07;;;;;;;;;;;;;;;;;;4974196;28;19922;-72
2022/05/23 07:18:33;;;;;;;;;;;;;;;;;;4974275;28;20354;-72
2022/05/23 07:20:59;;;;;;;;;;;;;;;;;;4974131;28;19922;-72
2022/05/23 07:23:25;;;;;;;;;;;;;;;;;;4974188;28;19922;-72
2022/05/23 07:25:51;;;;;;;;;;;;;;;;;;4972475;28;19977;-72
2022/05/23 07:28:17;;;;;;;;;;;;;;;;;;4973907;28;19922;-73
2022/05/23 07:30:43;;;;;;;;;;;;;;;;;;4971951;28;19929;-72
2022/05/23 07:33:09;;;;;;;;;;;;;;;;;;4956683;28;19922;-72
2022/05/23 07:35:35;;;;;;;;;;;;;;;;;;4972533;28;19933;-72
2022/05/23 07:38:01;;;;;;;;;;;;;;;;;;4972915;28;20171;-71
2022/05/23 07:40:27;;;;;;;;;;;;;;;;;;4973957;28;19976;-72
2022/05/23 07:42:53;;;;;;;;;;;;;;;;;;4973957;28;19922;-72
2022/05/23 07:45:19;;;;;;;;;;;;;;;;;;4973874;28;20250;-72
2022/05/23 07:47:45;;;;;;;;;;;;;;;;;;4972693;28;19922;-72
2022/05/23 07:50:11;;;;;;;;;;;;;;;;;;4972247;28;19992;-71
2022/05/23 07:52:37;;;;;;;;;;;;;;;;;;4972364;28;20325;-72
2022/05/23 08:00:32;;;;;;;;;;;;;;;;;;4973637;28;20031;-73
2022/05/23 08:02:58;;;;;;;;;;;;;;;;;;4972233;28;19922;-72
2022/05/23 08:05:24;;;;;;;;;;;;;;;;;;4972826;28;19977;-72
2022/05/23 08:07:50;;;;;;;;;;;;;;;;;;4973279;28;19929;-72
2022/05/23 08:10:16;;;;;;;;;;;;;;;;;;4973829;28;19925;-72
2022/05/23 08:12:43;;;;;;;;;;;;;;;;;;4971187;28;19932;-74
2022/05/23 08:15:08;;;;;;;;;;;;;;;;;;4972444;28;19926;-73
2022/05/23 08:17:34;;;;;;;;;;;;;;;;;;4973506;28;19992;-74
2022/05/23 08:20:00;;;;;;;;;;;;;;;;;;4973535;28;19929;-73
2022/05/23 08:22:26;;;;;;;;;;;;;;;;;;4973708;28;19981;-73
2022/05/23 08:24:52;;;;;;;;;;;;;;;;;;4972811;28;19922;-74
2022/05/23 08:27:20;;;;;;;;;;;;;;;;;;4973545;28;19983;-73
2022/05/23 08:29:46;;;;;;;;;;;;;;;;;;4956383;28;20278;-73
2022/05/23 08:32:13;;;;;;;;;;;;;;;;;;4972851;28;19925;-73
2022/05/23 08:34:38;;;;;;;;;;;;;;;;;;4972311;28;19922;-76
2022/05/23 08:37:04;;;;;;;;;;;;;;;;;;4955213;28;20373;-75
2022/05/23 08:39:31;;;;;;;;;;;;;;;;;;4973511;28;20349;-75
2022/05/23 08:41:57;;;;;;;;;;;;;;;;;;4973600;28;19922;-75
2022/05/23 08:44:23;;;;;;;;;;;;;;;;;;4956345;28;19977;-74
2022/05/23 08:46:49;;;;;;;;;;;;;;;;;;4971605;28;19922;-76
2022/05/23 08:49:15;;;;;;;;;;;;;;;;;;4973011;28;20358;-76
2022/05/23 08:51:41;;;;;;;;;;;;;;;;;;4975603;28;19922;-75
2022/05/23 08:54:08;;;;;;;;;;;;;;;;;;4976482;28;19944;-74
2022/05/23 08:56:34;;;;;;;;;;;;;;;;;;4976679;28;19933;-76
2022/05/23 08:59:00;;;;;;;;;;;;;;;;;;4976326;28;19928;-75
2022/05/23 09:01:26;;;;;;;;;;;;;;;;;;4976701;28;20016;-75
2022/05/23 09:03:52;;;;;;;;;;;;;;;;;;4975619;28;20409;-79
2022/05/23 09:06:18;;;;;;;;;;;;;;;;;;4959056;28;20420;-78
2022/05/23 09:08:44;;;;;;;;;;;;;;;;;;4975725;28;20251;-77
2022/05/23 09:11:10;;;;;;;;;;;;;;;;;;4976663;28;19921;-77
2022/05/23 09:13:36;;;;;;;;;;;;;;;;;;4976937;28;19926;-77
2022/05/23 09:16:04;;;;;;;;;;;;;;;;;;4976066;28;19944;-76
2022/05/23 09:18:30;;;;;;;;;;;;;;;;;;4959725;28;20325;-76
2022/05/23 09:20:56;;;;;;;;;;;;;;;;;;4959010;28;20290;-76
2022/05/23 09:23:22;;;;;;;;;;;;;;;;;;4975733;28;19918;-76
2022/05/23 09:25:48;;;;;;;;;;;;;;;;;;4959244;28;19922;-74
2022/05/23 09:28:14;;;;;;;;;;;;;;;;;;4976024;28;19968;-74
2022/05/23 09:30:40;;;;;;;;;;;;;;;;;;4976310;28;19926;-75
2022/05/23 09:33:07;;;;;;;;;;;;;;;;;;4975826;28;19941;-74
2022/05/23 09:35:33;;;;;;;;;;;;;;;;;;4976470;28;19928;-75
2022/05/23 09:37:59;;;;;;;;;;;;;;;;;;4976338;28;20013;-75
2022/05/23 09:40:25;;;;;;;;;;;;;;;;;;4976273;28;19922;-75
2022/05/23 09:48:20;;;;;;;;;;;;;;;;;;4974767;28;19929;-76
2022/05/23 09:50:46;;;;;;;;;;;;;;;;;;4975550;28;19926;-75
2022/05/23 09:53:12;;;;;;;;;;;;;;;;;;4975848;28;19929;-74
2022/05/23 09:55:39;;;;;;;;;;;;;;;;;;4975515;28;19922;-74
2022/05/23 09:58:05;;;;;;;;;;;;;;;;;;4974306;28;19929;-74
2022/05/23 10:00:35;;;;;;;;;;;;;;;;;;4975573;28;19922;-74
2022/05/23 10:03:01;;;;;;;;;;;;;;;;;;4974536;28;19922;-75
2022/05/23 10:05:27;;;;;;;;;;;;;;;;;;4975537;28;20013;-78
2022/05/23 10:07:54;;;;;;;;;;;;;;;;;;4975087;28;20009;-79
2022/05/23 10:10:20;;;;;;;;;;;;;;;;;;4975301;28;19922;-80
2022/05/23 10:12:48;;;;;;;;;;;;;;;;;;4975966;28;19948;-79
2022/05/23 10:15:14;;;;;;;;;;;;;;;;;;4975411;28;20059;-79
2022/05/23 10:17:40;;;;;;;;;;;;;;;;;;4958309;28;20016;-80
2022/05/23 10:20:06;;;;;;;;;;;;;;;;;;4975168;28;19930;-79
2022/05/23 10:22:33;;;;;;;;;;;;;;;;;;4974851;28;19929;-78
2022/05/23 10:24:59;;;;;;;;;;;;;;;;;;4975161;28;19929;-78
2022/05/23 10:27:25;;;;;;;;;;;;;;;;;;4975303;28;20470;-78
2022/05/23 10:29:53;;;;;;;;;;;;;;;;;;4958137;28;20366;-80
2022/05/23 10:32:19;;;;;;;;;;;;;;;;;;4975000;28;19922;-80
2022/05/23 10:34:45;;;;;;;;;;;;;;;;;;4974817;28;19949;-80
2022/05/23 10:37:11;;;;;;;;;;;;;;;;;;4940830;28;19998;-78
2022/05/23 10:42:21;;;;;;;;;;;;;;;;;;4957353;28;19918;-79
2022/05/23 10:44:47;;;;;;;;;;;;;;;;;;4974821;28;19968;-83
2022/05/23 10:47:13;;;;;;;;;;;;;;;;;;4974786;28;19926;-79
2022/05/23 10:49:39;;;;;;;;;;;;;;;;;;4974883;28;19969;-80
2022/05/23 10:52:05;;;;;;;;;;;;;;;;;;4957003;28;19929;-77
2022/05/23 10:54:31;;;;;;;;;;;;;;;;;;4974110;28;19926;-79
2022/05/23 10:56:58;;;;;;;;;;;;;;;;;;4973698;28;19922;-78
2022/05/23 10:59:24;;;;;;;;;;;;;;;;;;4974382;28;19922;-80
2022/05/23 11:01:50;;;;;;;;;;;;;;;;;;4957456;28;20350;-79
2022/05/23 11:04:16;;;;;;;;;;;;;;;;;;4974282;28;19969;-80
2022/05/23 11:06:42;;;;;;;;;;;;;;;;;;4974832;28;19992;-78
2022/05/23 11:09:08;;;;;;;;;;;;;;;;;;4973919;28;19922;-79
2022/05/23 11:11:34;;;;;;;;;;;;;;;;;;4957248;28;20016;-80
2022/05/23 11:14:00;;;;;;;;;;;;;;;;;;4940950;28;20288;-78
2022/05/23 11:16:26;;;;;;;;;;;;;;;;;;4973868;28;19959;-79
2022/05/23 11:18:52;;;;;;;;;;;;;;;;;;4974301;28;19922;-78
2022/05/23 11:21:18;;;;;;;;;;;;;;;;;;4957420;28;19929;-78
2022/05/23 11:23:45;;;;;;;;;;;;;;;;;;4974571;28;19921;-78
2022/05/23 11:26:11;;;;;;;;;;;;;;;;;;4974404;28;19977;-78
2022/05/23 11:34:05;;;;;;;;;;;;;;;;;;4974232;28;20100;-78
2022/05/23 11:36:56;;;;;;;;;;;;;;;;;;4974858;28;19922;-78
2022/05/23 11:39:20;;;;;;;;;;;;;;;;;;4973722;28;19922;-78
2022/05/23 11:41:46;;;;;;;;;;;;;;;;;;4975032;28;19933;-78
2022/05/23 11:44:12;;;;;;;;;;;;;;;;;;4974285;28;19922;-78
2022/05/23 11:46:39;;;;;;;;;;;;;;;;;;4974275;28;20012;-79
2022/05/23 11:49:10;;;;;;;;;;;;;;;;;;4974515;28;19930;-76
2022/05/23 11:51:41;;;;;;;;;;;;;;;;;;4953754;29;20263;-78
2022/05/23 11:54:08;;;;;;;;;;;;;;;;;;4953931;29;19923;-78
2022/05/23 11:56:34;;;;;;;;;;;;;;;;;;4954611;29;20370;-78
2022/05/23 11:59:00;;;;;;;;;;;;;;;;;;4954732;29;19922;-78
2022/05/23 12:01:27;;;;;;;;;;;;;;;;;;4954636;29;19933;-75
2022/05/23 12:03:54;;;;;;;;;;;;;;;;;;4954303;29;19922;-77
2022/05/23 12:06:20;;;;;;;;;;;;;;;;;;4954657;29;20413;-77
2022/05/23 12:08:46;;;;;;;;;;;;;;;;;;4954496;29;19977;-77
2022/05/23 12:11:12;;;;;;;;;;;;;;;;;;4954322;29;19922;-78
2022/05/23 12:13:38;;;;;;;;;;;;;;;;;;4954224;29;20270;-78
2022/05/23 12:16:04;;;;;;;;;;;;;;;;;;4954894;29;20289;-78
2022/05/23 12:18:30;;;;;;;;;;;;;;;;;;4954288;29;19922;-79
2022/05/23 12:20:56;;;;;;;;;;;;;;;;;;4955103;29;20374;-79
2022/05/23 12:23:22;;;;;;;;;;;;;;;;;;4937587;29;19922;-77
2022/05/23 12:25:48;;;;;;;;;;;;;;;;;;4956617;28;19929;-88
2022/05/23 12:28:14;;;;;;;;;;;;;;;;;;4957509;29;19922;-78
2022/05/23 12:30:41;;;;;;;;;;;;;;;;;;4958659;29;19926;-80
2022/05/23 12:33:07;;;;;;;;;;;;;;;;;;4955074;29;19945;-76
2022/05/23 12:35:33;;;;;;;;;;;;;;;;;;4957833;29;20366;-76
2022/05/23 12:37:59;;;;;;;;;;;;;;;;;;4958584;29;19928;-77
2022/05/23 12:40:25;;;;;;;;;;;;;;;;;;4958298;29;19922;-78
2022/05/23 12:42:51;;;;;;;;;;;;;;;;;;4958483;29;19929;-76
2022/05/23 12:45:17;;;;;;;;;;;;;;;;;;4957078;29;19922;-75
2022/05/23 12:47:43;;;;;;;;;;;;;;;;;;4957852;29;20009;-76
2022/05/23 12:50:11;;;;;;;;;;;;;;;;;;4958058;29;19976;-78
2022/05/23 12:52:37;;;;;;;;;;;;;;;;;;4977127;28;19968;-79
2022/05/23 12:55:05;;;;;;;;;;;;;;;;;;4977579;28;19922;-79
2022/05/23 12:57:31;;;;;;;;;;;;;;;;;;4976569;28;19929;-78
2022/05/23 12:59:57;;;;;;;;;;;;;;;;;;4977326;28;20297;-76
2022/05/23 13:02:22;;;;;;;;;;;;;;;;;;4977325;28;19945;-76
2022/05/23 13:04:48;;;;;;;;;;;;;;;;;;4976552;28;19961;-82
2022/05/23 13:07:14;;;;;;;;;;;;;;;;;;4977162;28;19922;-77
2022/05/23 13:09:41;;;;;;;;;;;;;;;;;;4976497;28;20021;-81
2022/05/23 13:12:07;;;;;;;;;;;;;;;;;;4960265;28;20325;-77
2022/05/23 13:14:33;;;;;;;;;;;;;;;;;;4976305;28;20380;-79
2022/05/23 13:16:59;;;;;;;;;;;;;;;;;;4958562;28;19957;-76
2022/05/23 13:22:11;;;;;;;;;;;;;;;;;;4959949;28;19921;-76
2022/05/23 13:24:49;;;;;;;;;;;;;;;;;;4977092;28;19985;-76
2022/05/23 13:27:15;;;;;;;;;;;;;;;;;;4959375;28;19922;-76
2022/05/23 13:29:41;;;;;;;;;;;;;;;;;;4976607;28;20017;-76
2022/05/23 13:32:07;;;;;;;;;;;;;;;;;;4959818;28;19929;-75
2022/05/23 13:34:33;;;;;;;;;;;;;;;;;;4976521;28;19922;-75
2022/05/23 13:36:59;;;;;;;;;;;;;;;;;;4959303;28;20424;-76
2022/05/23 13:39:25;;;;;;;;;;;;;;;;;;4976541;28;19944;-76
2022/05/23 13:41:51;;;;;;;;;;;;;;;;;;4959822;28;19922;-74
2022/05/23 13:44:17;;;;;;;;;;;;;;;;;;4976878;28;19922;-76
2022/05/23 13:46:43;;;;;;;;;;;;;;;;;;4958813;28;19972;-76
2022/05/23 13:49:09;;;;;;;;;;;;;;;;;;4976423;28;19922;-75
2022/05/23 13:51:35;;;;;;;;;;;;;;;;;;4954920;29;20036;-76
2022/05/23 13:54:01;;;;;;;;;;;;;;;;;;4955527;29;19923;-76
2022/05/23 13:56:27;;;;;;;;;;;;;;;;;;4956332;29;20009;-75
2022/05/23 13:58:53;;;;;;;;;;;;;;;;;;4955590;29;19994;-78
2022/05/23 14:01:22;;;;;;;;;;;;;;;;;;4954862;29;19932;-87
2022/05/23 14:03:48;;;;;;;;;;;;;;;;;;4939031;29;19929;-87
2022/05/23 14:06:14;;;;;;;;;;;;;;;;;;4939149;29;20009;-88
2022/05/23 14:08:40;;;;;;;;;;;;;;;;;;4938667;29;20380;-86
2022/05/23 14:11:06;;;;;;;;;;;;;;;;;;4954261;29;19926;-79
2022/05/23 14:13:32;;;;;;;;;;;;;;;;;;4938752;29;20378;-85
2022/05/23 14:15:58;;;;;;;;;;;;;;;;;;4939274;29;20009;-84
2022/05/23 14:18:25;;;;;;;;;;;;;;;;;;4938859;29;20327;-84
2022/05/23 14:20:51;;;;;;;;;;;;;;;;;;4954150;29;19945;-77
2022/05/23 14:23:17;;;;;;;;;;;;;;;;;;4954835;29;20362;-78
2022/05/23 14:25:43;;;;;;;;;;;;;;;;;;4954251;29;19970;-78
2022/05/23 14:28:09;;;;;;;;;;;;;;;;;;4938585;29;19930;-79
2022/05/23 14:30:37;;;;;;;;;;;;;;;;;;4937678;29;19922;-79
2022/05/23 14:33:04;;;;;;;;;;;;;;;;;;4938919;29;20057;-76
2022/05/23 14:35:30;;;;;;;;;;;;;;;;;;4955472;29;20492;-77
2022/05/23 14:37:56;;;;;;;;;;;;;;;;;;4954624;29;19965;-76
2022/05/23 14:40:22;;;;;;;;;;;;;;;;;;4953972;29;20008;-76
2022/05/23 14:42:48;;;;;;;;;;;;;;;;;;4952947;29;19926;-76
2022/05/23 14:45:14;;;;;;;;;;;;;;;;;;4955057;29;19922;-76
2022/05/23 14:47:40;;;;;;;;;;;;;;;;;;4952750;28;19934;-76
2022/05/23 14:50:06;;;;;;;;;;;;;;;;;;4955098;29;19926;-75
2022/05/23 14:52:32;;;;;;;;;;;;;;;;;;4952709;29;19922;-77
2022/05/23 15:00:43;;;;;;;;;;;;;;;;;;4953713;28;20366;-77
2022/05/23 15:03:09;;;;;;;;;;;;;;;;;;4952841;29;19930;-76
2022/05/23 15:05:35;;;;;;;;;;;;;;;;;;4953359;29;19922;-78
2022/05/23 15:08:01;;;;;;;;;;;;;;;;;;4953297;29;19922;-76
2022/05/23 15:10:27;;;;;;;;;;;;;;;;;;4936889;29;19927;-77
2022/05/23 15:12:53;;;;;;;;;;;;;;;;;;4953122;29;19923;-78
2022/05/23 15:15:19;;;;;;;;;;;;;;;;;;4937116;29;19922;-77
2022/05/23 15:17:46;;;;;;;;;;;;;;;;;;4952372;29;19922;-77
2022/05/23 15:20:12;;;;;;;;;;;;;;;;;;4953179;29;20281;-78
2022/05/23 15:22:41;;;;;;;;;;;;;;;;;;4952885;29;20325;-77
2022/05/23 15:25:09;;;;;;;;;;;;;;;;;;4936868;29;19934;-77
2022/05/23 15:27:35;;;;;;;;;;;;;;;;;;4952809;29;19923;-78
2022/05/23 15:30:01;;;;;;;;;;;;;;;;;;4936226;29;20017;-77
2022/05/23 15:32:27;;;;;;;;;;;;;;;;;;4951161;29;19922;-78
2022/05/23 15:34:53;;;;;;;;;;;;;;;;;;4952694;29;19929;-79
2022/05/23 15:37:19;;;;;;;;;;;;;;;;;;4952764;29;20012;-80
2022/05/23 15:39:45;;;;;;;;;;;;;;;;;;4951845;29;19950;-79
2022/05/23 15:42:11;;;;;;;;;;;;;;;;;;4952480;29;19986;-81
2022/05/23 15:44:37;;;;;;;;;;;;;;;;;;4952775;29;19927;-78
2022/05/23 15:47:03;;;;;;;;;;;;;;;;;;4952158;29;20365;-78
2022/05/23 15:49:29;;;;;;;;;;;;;;;;;;4952528;29;19945;-78
2022/05/23 15:51:55;;;;;;;;;;;;;;;;;;4914696;29;1104476;-79
2022/05/23 15:54:21;;;;;;;;;;;;;;;;;;4937037;29;19922;-77
2022/05/23 15:56:47;;;;;;;;;;;;;;;;;;4953505;29;20417;-78
2022/05/23 15:59:13;;;;;;;;;;;;;;;;;;4953422;28;19969;-78
2022/05/23 16:01:39;;;;;;;;;;;;;;;;;;4954094;29;19923;-77
2022/05/23 16:04:05;;;;;;;;;;;;;;;;;;4952846;29;19971;-76
2022/05/23 16:06:31;;;;;;;;;;;;;;;;;;4954064;29;19934;-75
2022/05/23 16:08:57;;;;;;;;;;;;;;;;;;4953934;29;19933;-75
2022/05/23 16:11:23;;;;;;;;;;;;;;;;;;4954296;29;19929;-75
2022/05/23 16:13:49;;;;;;;;;;;;;;;;;;4954720;28;19929;-75
2022/05/23 16:16:15;;;;;;;;;;;;;;;;;;4954556;29;19922;-77
2022/05/23 16:18:41;;;;;;;;;;;;;;;;;;4954385;29;19926;-77
2022/05/23 16:21:07;;;;;;;;;;;;;;;;;;4954173;28;19926;-76
2022/05/23 16:23:33;;;;;;;;;;;;;;;;;;4953808;29;20033;-76
2022/05/23 16:25:59;;;;;;;;;;;;;;;;;;4952869;29;19945;-77
2022/05/23 16:28:25;;;;;;;;;;;;;;;;;;4953114;29;19926;-77
2022/05/23 16:30:51;;;;;;;;;;;;;;;;;;4952957;29;19922;-75
2022/05/23 16:38:47;;;;;;;;;;;;;;;;;;4953550;28;19930;-75
2022/05/23 16:41:13;;;;;;;;;;;;;;;;;;4953734;29;19922;-76
2022/05/23 16:43:39;;;;;;;;;;;;;;;;;;4953638;29;19922;-75
2022/05/23 16:46:05;;;;;;;;;;;;;;;;;;4953315;29;19926;-75
2022/05/23 16:48:31;;;;;;;;;;;;;;;;;;4953433;29;19922;-75
2022/05/23 16:50:58;;;;;;;;;;;;;;;;;;4959828;28;19922;-76
2022/05/23 16:53:24;;;;;;;;;;;;;;;;;;4972844;28;19926;-74
2022/05/23 16:55:50;;;;;;;;;;;;;;;;;;4956378;28;19977;-76
2022/05/23 16:58:16;;;;;;;;;;;;;;;;;;4973576;28;19965;-74
2022/05/23 17:00:43;;;;;;;;;;;;;;;;;;4973816;28;19929;-76
2022/05/23 17:03:09;;;;;;;;;;;;;;;;;;4972920;28;20062;-75
2022/05/23 17:05:35;;;;;;;;;;;;;;;;;;4973628;28;20016;-78
2022/05/23 17:08:00;;;;;;;;;;;;;;;;;;4955346;28;19989;-77
2022/05/23 17:10:27;;;;;;;;;;;;;;;;;;4972940;28;19933;-76
2022/05/23 17:12:52;;;;;;;;;;;;;;;;;;4975551;28;19945;-81
2022/05/23 17:15:18;;;;;;;;;;;;;;;;;;4942424;28;19922;-83
2022/05/23 17:17:44;;;;;;;;;;;;;;;;;;4942440;28;19949;-83
2022/05/23 17:20:10;;;;;;;;;;;;;;;;;;4942266;28;19976;-83
2022/05/23 17:22:36;;;;;;;;;;;;;;;;;;4959672;28;19949;-76
2022/05/23 17:25:02;;;;;;;;;;;;;;;;;;4975855;28;20357;-75
2022/05/23 17:27:28;;;;;;;;;;;;;;;;;;4976013;28;20365;-75
2022/05/23 17:29:54;;;;;;;;;;;;;;;;;;4957400;28;19988;-77
2022/05/23 17:32:20;;;;;;;;;;;;;;;;;;4959075;28;19944;-77
2022/05/23 17:34:46;;;;;;;;;;;;;;;;;;4976069;28;19925;-76
2022/05/23 17:37:12;;;;;;;;;;;;;;;;;;4976082;28;19921;-76
2022/05/23 17:39:38;;;;;;;;;;;;;;;;;;4976818;28;19972;-75
2022/05/23 17:42:06;;;;;;;;;;;;;;;;;;4975964;28;19922;-75
2022/05/23 17:44:32;;;;;;;;;;;;;;;;;;4959171;28;19922;-76
2022/05/23 17:46:57;;;;;;;;;;;;;;;;;;4975892;28;19922;-76